CheckWX is a tool to help pilots better visualize weather data.  It is not intended as a substitute for an official pre-flight weather briefing.

07:12:09 UTC

NWWW TAF
La Tontouta International Airport
Nouméa, New Caledonia
TAF NWWW 170500Z 1706/1806 VRB02KT 9999 BKN040 TEMPO 1706/1715 -RA BKN014

Jun-17@
06:00 UTC

Jun-17 @ 06:00 UTC

Jun-18@
06:00 UTC

Jun-18 @ 06:00 UTC

TAF NWWW 170500Z 1706/1806 VRB02KT 9999 BKN040
Wind
  • Variable at 2 KTS
Cloud Levels
  • Broken at 4,000' AGL

Jun-17@
06:00 UTC

Jun-17 @ 06:00 UTC

Jun-17@
15:00 UTC

Jun-17 @ 15:00 UTC

TEMPO 1706/1715 -RA BKN014

Temporary

Temporary Changes expected for less than half the time period

Conditions
Light Rain
Cloud Levels
  • Broken at 1,400' AGL